createdAt,value
2018-08-16T00:00:34.816Z,0
2018-08-16T00:01:34.842Z,0
2018-08-16T00:02:34.747Z,0
2018-08-16T00:03:34.746Z,0
2018-08-16T00:04:34.805Z,0
2018-08-16T00:05:34.790Z,0
2018-08-16T00:06:34.757Z,0
2018-08-16T00:07:34.756Z,0
2018-08-16T00:08:34.787Z,0
2018-08-16T00:09:34.784Z,0
2018-08-16T00:10:34.828Z,0
2018-08-16T00:11:34.730Z,0
2018-08-16T00:12:34.762Z,0
2018-08-16T00:13:34.736Z,0
2018-08-16T00:14:34.852Z,0
2018-08-16T00:15:34.825Z,0
2018-08-16T00:16:34.821Z,0
2018-08-16T00:17:34.819Z,0
2018-08-16T00:18:34.762Z,0
2018-08-16T00:19:34.813Z,0
2018-08-16T00:20:34.814Z,0
2018-08-16T00:21:34.813Z,0
2018-08-16T00:22:34.709Z,0
2018-08-16T00:23:34.816Z,0
2018-08-16T00:24:34.761Z,0
2018-08-16T00:25:34.816Z,0
2018-08-16T00:26:34.727Z,0
2018-08-16T00:27:34.752Z,0
2018-08-16T00:28:34.770Z,0
2018-08-16T00:29:34.881Z,0
2018-08-16T00:30:34.813Z,0
2018-08-16T00:31:34.883Z,0
2018-08-16T00:32:34.881Z,0
2018-08-16T00:33:34.881Z,0
2018-08-16T00:34:34.814Z,0
2018-08-16T00:35:34.883Z,0
2018-08-16T00:36:34.819Z,0
2018-08-16T00:37:34.822Z,0
2018-08-16T00:38:34.814Z,0
2018-08-16T00:39:34.851Z,0
2018-08-16T00:40:34.855Z,0
2018-08-16T00:41:34.857Z,0
2018-08-16T00:42:34.960Z,0
2018-08-16T00:43:34.844Z,0
2018-08-16T00:44:34.787Z,0
2018-08-16T00:45:34.884Z,0
2018-08-16T00:46:34.830Z,0
2018-08-16T00:47:34.836Z,0
2018-08-16T00:48:34.776Z,0
2018-08-16T00:49:34.820Z,0
2018-08-16T00:50:34.896Z,0
2018-08-16T00:51:34.822Z,0
2018-08-16T00:52:34.898Z,0
2018-08-16T00:53:34.833Z,0
2018-08-16T00:54:34.826Z,0
2018-08-16T00:55:34.865Z,0
2018-08-16T00:56:34.900Z,0
2018-08-16T00:57:34.832Z,0
2018-08-16T00:58:34.830Z,0
2018-08-16T00:59:34.803Z,0
2018-08-16T01:00:34.867Z,0
2018-08-16T01:01:34.764Z,0
2018-08-16T01:02:34.889Z,0
2018-08-16T01:03:34.848Z,0
2018-08-16T01:04:34.854Z,0
2018-08-16T01:05:34.871Z,0
2018-08-16T01:06:34.807Z,0
2018-08-16T01:07:34.855Z,0
2018-08-16T01:08:34.807Z,0
2018-08-16T01:09:34.908Z,0
2018-08-16T01:10:34.855Z,0
2018-08-16T01:11:34.910Z,0
2018-08-16T01:12:34.914Z,0
2018-08-16T01:13:34.838Z,0
2018-08-16T01:14:34.912Z,0
2018-08-16T01:15:34.910Z,0
2018-08-16T01:16:34.842Z,0
2018-08-16T01:17:35.007Z,0
2018-08-16T01:18:34.936Z,0
2018-08-16T01:19:34.918Z,0
2018-08-16T01:20:34.850Z,0
2018-08-16T01:21:34.918Z,0
2018-08-16T01:22:34.857Z,0
2018-08-16T01:23:34.915Z,0
2018-08-16T01:24:34.918Z,0
2018-08-16T01:25:34.849Z,0
2018-08-16T01:26:34.943Z,0
2018-08-16T01:27:34.919Z,0
2018-08-16T01:28:34.921Z,0
2018-08-16T01:29:34.985Z,0
2018-08-16T01:30:34.923Z,0
2018-08-16T01:31:34.853Z,0
2018-08-16T01:32:34.921Z,0
2018-08-16T01:33:34.949Z,0
2018-08-16T01:34:34.924Z,0
2018-08-16T01:35:34.901Z,0
2018-08-16T01:36:34.930Z,0
2018-08-16T01:37:34.925Z,0
2018-08-16T01:38:34.933Z,0
2018-08-16T01:39:34.868Z,0
2018-08-16T01:40:34.929Z,0
2018-08-16T01:41:34.854Z,0
2018-08-16T01:42:34.933Z,0
2018-08-16T01:43:34.863Z,0
2018-08-16T01:44:34.939Z,0
2018-08-16T01:45:34.888Z,0
2018-08-16T01:46:34.866Z,0
2018-08-16T01:47:34.939Z,0
2018-08-16T01:48:34.863Z,0
2018-08-16T01:49:34.936Z,0
2018-08-16T01:50:34.929Z,0
2018-08-16T01:51:34.936Z,0
2018-08-16T01:52:34.869Z,0
2018-08-16T01:53:34.865Z,0
2018-08-16T01:54:34.938Z,0
2018-08-16T01:55:34.871Z,0
2018-08-16T01:56:34.944Z,0
2018-08-16T01:57:34.867Z,0
2018-08-16T01:58:34.874Z,0
2018-08-16T01:59:34.871Z,0
2018-08-16T02:00:34.940Z,0
2018-08-16T02:01:34.869Z,0
2018-08-16T02:02:39.236Z,0
2018-08-16T02:03:34.944Z,0
2018-08-16T02:04:34.873Z,0
2018-08-16T02:05:34.945Z,0
2018-08-16T02:06:34.880Z,0
2018-08-16T02:07:34.874Z,0
2018-08-16T02:08:34.949Z,0
2018-08-16T02:09:34.897Z,0
2018-08-16T02:10:34.848Z,0
2018-08-16T02:11:34.849Z,0
2018-08-16T02:12:34.835Z,0
2018-08-16T02:13:34.892Z,0
2018-08-16T02:14:34.937Z,0
2018-08-16T02:15:34.854Z,0
2018-08-16T02:16:34.851Z,0
2018-08-16T02:17:34.923Z,0
2018-08-16T02:18:34.902Z,0
2018-08-16T02:19:34.955Z,0
2018-08-16T02:20:34.957Z,0
2018-08-16T02:21:34.889Z,0
2018-08-16T02:22:34.892Z,0
2018-08-16T02:23:34.958Z,0
2018-08-16T02:24:34.967Z,0
2018-08-16T02:25:34.930Z,0
2018-08-16T02:26:34.962Z,0
2018-08-16T02:27:34.962Z,0
2018-08-16T02:28:34.895Z,0
2018-08-16T02:29:34.962Z,0
2018-08-16T02:30:34.964Z,0
2018-08-16T02:31:34.897Z,0
2018-08-16T02:32:34.901Z,0
2018-08-16T02:33:34.992Z,0
2018-08-16T02:34:34.969Z,0
2018-08-16T02:35:34.903Z,0
2018-08-16T02:36:34.899Z,0
2018-08-16T02:37:34.971Z,0
2018-08-16T02:38:34.968Z,0
2018-08-16T02:39:34.899Z,0
2018-08-16T02:40:34.969Z,0
2018-08-16T02:41:34.904Z,0
2018-08-16T02:42:34.974Z,0
2018-08-16T02:43:34.899Z,0
2018-08-16T02:44:34.972Z,0
2018-08-16T02:45:34.905Z,0
2018-08-16T02:46:34.980Z,0
2018-08-16T02:47:34.973Z,0
2018-08-16T02:48:34.975Z,0
2018-08-16T02:49:34.911Z,0
2018-08-16T02:50:34.914Z,0
2018-08-16T02:51:34.980Z,0
2018-08-16T02:52:34.915Z,0
2018-08-16T02:53:34.979Z,0
2018-08-16T02:54:34.980Z,0
2018-08-16T02:55:34.915Z,0
2018-08-16T02:56:34.933Z,0
2018-08-16T02:57:34.982Z,0
2018-08-16T02:58:34.982Z,0
2018-08-16T02:59:34.913Z,0
2018-08-16T03:00:34.884Z,0
2018-08-16T03:01:34.974Z,0
2018-08-16T03:02:34.953Z,0
2018-08-16T03:03:34.954Z,0
2018-08-16T03:04:34.977Z,0
2018-08-16T03:05:34.949Z,0
2018-08-16T03:06:34.952Z,0
2018-08-16T03:07:34.894Z,0
2018-08-16T03:08:34.936Z,0
2018-08-16T03:09:34.951Z,0
2018-08-16T03:10:34.949Z,0
2018-08-16T03:11:34.868Z,0
2018-08-16T03:12:34.926Z,0
2018-08-16T03:13:34.922Z,0
2018-08-16T03:14:34.994Z,0
2018-08-16T03:15:34.939Z,0
2018-08-16T03:16:34.994Z,0
2018-08-16T03:17:34.995Z,0
2018-08-16T03:18:34.929Z,0
2018-08-16T03:19:34.997Z,0
2018-08-16T03:20:34.928Z,0
2018-08-16T03:21:35.201Z,0
2018-08-16T03:22:35.000Z,0
2018-08-16T03:23:34.999Z,0
2018-08-16T03:24:34.934Z,0
2018-08-16T03:25:35.007Z,0
2018-08-16T03:26:34.929Z,0
2018-08-16T03:27:34.930Z,4
2018-08-16T03:28:34.934Z,4
2018-08-16T03:29:34.903Z,4
2018-08-16T03:30:34.952Z,4
2018-08-16T03:31:34.904Z,0
2018-08-16T03:32:34.949Z,4
2018-08-16T03:33:34.975Z,4
2018-08-16T03:34:34.995Z,8
2018-08-16T03:35:34.909Z,4
2018-08-16T03:36:34.970Z,8
2018-08-16T03:37:34.977Z,12
2018-08-16T03:38:34.894Z,12
2018-08-16T03:39:34.964Z,12
2018-08-16T03:40:34.964Z,20
2018-08-16T03:41:34.964Z,20
2018-08-16T03:42:34.964Z,24
2018-08-16T03:43:34.887Z,28
2018-08-16T03:44:34.873Z,32
2018-08-16T03:45:34.909Z,40
2018-08-16T03:46:34.876Z,44
2018-08-16T03:47:34.878Z,52
2018-08-16T03:48:34.929Z,60
2018-08-16T03:49:35.007Z,68
2018-08-16T03:50:34.961Z,80
2018-08-16T03:51:34.985Z,88
2018-08-16T03:52:34.970Z,104
2018-08-16T03:53:34.988Z,116
2018-08-16T03:54:35.008Z,136
2018-08-16T03:55:34.929Z,152
2018-08-16T03:56:34.925Z,176
2018-08-16T03:57:35.010Z,196
2018-08-16T03:58:34.985Z,220
2018-08-16T03:59:34.955Z,244
2018-08-16T04:00:35.024Z,280
2018-08-16T04:01:35.023Z,312
2018-08-16T04:02:35.030Z,344
2018-08-16T04:03:34.969Z,380
2018-08-16T04:04:34.960Z,420
2018-08-16T04:05:35.028Z,460
2018-08-16T04:06:34.962Z,512
2018-08-16T04:07:34.972Z,564
2018-08-16T04:08:35.055Z,616
2018-08-16T04:09:35.022Z,680
2018-08-16T04:10:35.024Z,744
2018-08-16T04:11:34.913Z,816
2018-08-16T04:12:34.932Z,888
2018-08-16T04:13:34.985Z,972
2018-08-16T04:14:34.934Z,1052
2018-08-16T04:15:34.983Z,1144
2018-08-16T04:16:34.937Z,1232
2018-08-16T04:17:35.028Z,1320
2018-08-16T04:18:34.918Z,1428
2018-08-16T04:19:35.039Z,1548
2018-08-16T04:20:34.969Z,1660
2018-08-16T04:21:35.042Z,1780
2018-08-16T04:22:34.993Z,1904
2018-08-16T04:23:35.024Z,2036
2018-08-16T04:24:35.044Z,2164
2018-08-16T04:25:34.972Z,2292
2018-08-16T04:26:35.041Z,2412
2018-08-16T04:27:34.968Z,2544
2018-08-16T04:28:35.046Z,2692
2018-08-16T04:29:34.979Z,2848
2018-08-16T04:30:35.046Z,3016
2018-08-16T04:31:34.976Z,3172
2018-08-16T04:32:35.048Z,3320
2018-08-16T04:33:34.980Z,3440
2018-08-16T04:34:35.048Z,3568
2018-08-16T04:35:35.086Z,3736
2018-08-16T04:36:35.056Z,3928
2018-08-16T04:37:34.982Z,4104
2018-08-16T04:38:35.052Z,4276
2018-08-16T04:39:35.015Z,4420
2018-08-16T04:40:35.051Z,4568
2018-08-16T04:41:35.097Z,4752
2018-08-16T04:42:34.994Z,4940
2018-08-16T04:43:35.058Z,5152
2018-08-16T04:44:34.985Z,5396
2018-08-16T04:45:35.060Z,5612
2018-08-16T04:46:34.987Z,5808
2018-08-16T04:47:35.079Z,6000
2018-08-16T04:48:35.112Z,6176
2018-08-16T04:49:34.937Z,6344
2018-08-16T04:50:35.057Z,6512
2018-08-16T04:51:34.990Z,6676
2018-08-16T04:52:35.061Z,6860
2018-08-16T04:53:35.080Z,7032
2018-08-16T04:54:34.997Z,7196
2018-08-16T04:55:34.989Z,7332
2018-08-16T04:56:34.995Z,7476
2018-08-16T04:57:35.066Z,7636
2018-08-16T04:58:34.990Z,7840
2018-08-16T04:59:35.030Z,8048
2018-08-16T05:00:35.026Z,8280
2018-08-16T05:01:35.017Z,8492
2018-08-16T05:02:34.990Z,8652
2018-08-16T05:03:34.953Z,8808
2018-08-16T05:04:35.021Z,8956
2018-08-16T05:05:35.036Z,9092
2018-08-16T05:06:34.953Z,9208
2018-08-16T05:07:34.947Z,9320
2018-08-16T05:08:34.980Z,9448
2018-08-16T05:09:35.053Z,9580
2018-08-16T05:10:34.929Z,9736
2018-08-16T05:11:34.963Z,9896
2018-08-16T05:12:34.937Z,10036
2018-08-16T05:13:35.031Z,10176
2018-08-16T05:14:35.028Z,10352
2018-08-16T05:15:35.003Z,10528
2018-08-16T05:16:34.932Z,10700
2018-08-16T05:17:34.981Z,10864
2018-08-16T05:18:35.026Z,11272
2018-08-16T05:19:35.027Z,11412
2018-08-16T05:20:35.060Z,11540
2018-08-16T05:21:34.990Z,11684
2018-08-16T05:22:34.975Z,11860
2018-08-16T05:23:35.029Z,12072
2018-08-16T05:24:35.008Z,12272
2018-08-16T05:25:35.015Z,12468
2018-08-16T05:26:35.019Z,12616
2018-08-16T05:27:35.045Z,12772
2018-08-16T05:28:35.038Z,12908
2018-08-16T05:29:34.985Z,13032
2018-08-16T05:30:34.940Z,13152
2018-08-16T05:31:35.081Z,13288
2018-08-16T05:32:34.938Z,13428
2018-08-16T05:33:34.946Z,13592
2018-08-16T05:34:35.029Z,13632
2018-08-16T05:35:35.031Z,13740
2018-08-16T05:36:35.063Z,13844
2018-08-16T05:37:35.048Z,14012
2018-08-16T05:38:34.989Z,14204
2018-08-16T05:39:35.046Z,14328
2018-08-16T05:40:35.087Z,14376
2018-08-16T05:41:35.058Z,14448
2018-08-16T05:42:35.080Z,14548
2018-08-16T05:43:35.017Z,14628
2018-08-16T05:44:35.087Z,14704
2018-08-16T05:45:35.039Z,14768
2018-08-16T05:46:34.995Z,14856
2018-08-16T05:47:35.089Z,14980
2018-08-16T05:48:35.154Z,15132
2018-08-16T05:49:35.029Z,15284
2018-08-16T05:50:35.036Z,16760
2018-08-16T05:51:35.100Z,22048
2018-08-16T05:52:35.034Z,24256
2018-08-16T05:53:35.103Z,24480
2018-08-16T05:54:35.105Z,25056
2018-08-16T05:55:35.110Z,25760
2018-08-16T05:56:35.107Z,26656
2018-08-16T05:57:35.039Z,27040
2018-08-16T05:58:35.105Z,27328
2018-08-16T05:59:35.035Z,27104
2018-08-16T06:00:35.095Z,28032
2018-08-16T06:01:35.044Z,29440
2018-08-16T06:02:35.020Z,32320
2018-08-16T06:03:35.044Z,27520
2018-08-16T06:04:35.071Z,25760
2018-08-16T06:05:35.065Z,31616
2018-08-16T06:06:35.037Z,27968
2018-08-16T06:07:35.085Z,23968
2018-08-16T06:08:35.003Z,26016
2018-08-16T06:09:35.043Z,25280
2018-08-16T06:10:35.115Z,25472
2018-08-16T06:11:35.052Z,25920
2018-08-16T06:12:35.049Z,26560
2018-08-16T06:13:35.120Z,27520
2018-08-16T06:14:35.049Z,29696
2018-08-16T06:15:35.298Z,33888
2018-08-16T06:16:35.123Z,35776
2018-08-16T06:17:35.055Z,28864
2018-08-16T06:18:35.119Z,32096
2018-08-16T06:19:35.057Z,44384
2018-08-16T06:20:35.122Z,43648
2018-08-16T06:21:35.061Z,51136
2018-08-16T06:22:35.012Z,47872
2018-08-16T06:23:35.127Z,52512
2018-08-16T06:24:35.087Z,49472
2018-08-16T06:25:35.061Z,49792
2018-08-16T06:26:35.129Z,48000
2018-08-16T06:27:35.127Z,51040
2018-08-16T06:28:35.059Z,47584
2018-08-16T06:29:35.128Z,48480
2018-08-16T06:30:35.065Z,50112
2018-08-16T06:31:35.236Z,50688
2018-08-16T06:32:35.119Z,51360
2018-08-16T06:33:35.133Z,51584
2018-08-16T06:34:35.062Z,51776
2018-08-16T06:35:35.065Z,53024
2018-08-16T06:36:35.130Z,54240
2018-08-16T06:37:35.132Z,55104
2018-08-16T06:38:35.062Z,55648
2018-08-16T06:39:35.137Z,56064
2018-08-16T06:40:35.064Z,56032
2018-08-16T06:41:35.138Z,55488
2018-08-16T06:42:35.087Z,54528
2018-08-16T06:43:35.136Z,53792
2018-08-16T06:44:35.072Z,53536
2018-08-16T06:45:35.139Z,54208
2018-08-16T06:46:35.069Z,55584
2018-08-16T06:47:35.144Z,57088
2018-08-16T06:48:35.071Z,58176
2018-08-16T06:49:35.141Z,58880
2018-08-16T06:50:35.023Z,59200
2018-08-16T06:51:35.140Z,59072
2018-08-16T06:52:35.169Z,59520
2018-08-16T06:53:35.049Z,61664
2018-08-16T06:54:35.141Z,64832
2018-08-16T06:55:35.046Z,68576
2018-08-16T06:56:35.143Z,71712
2018-08-16T06:57:35.048Z,73440
2018-08-16T06:58:35.008Z,73472
2018-08-16T06:59:35.080Z,72352
2018-08-16T07:00:34.969Z,69472
2018-08-16T07:01:35.023Z,66720
2018-08-16T07:02:35.008Z,65632
2018-08-16T07:03:34.969Z,65408
2018-08-16T07:04:35.074Z,65984
2018-08-16T07:05:35.012Z,67616
2018-08-16T07:06:35.024Z,69792
2018-08-16T07:07:34.972Z,71392
2018-08-16T07:08:35.083Z,72384
2018-08-16T07:09:35.061Z,73440
2018-08-16T07:10:35.118Z,73568
2018-08-16T07:11:35.050Z,73472
2018-08-16T07:12:35.138Z,74080
2018-08-16T07:13:35.145Z,74944
2018-08-16T07:14:35.153Z,76224
2018-08-16T07:15:35.087Z,77568
2018-08-16T07:16:35.091Z,77920
2018-08-16T07:17:35.016Z,77408
2018-08-16T07:18:35.086Z,77088
2018-08-16T07:19:35.168Z,77248
2018-08-16T07:20:35.091Z,77280
2018-08-16T07:21:35.167Z,77824
2018-08-16T07:22:35.095Z,78656
2018-08-16T07:23:35.200Z,79840
2018-08-16T07:24:35.216Z,80512
2018-08-16T07:25:35.098Z,81984
2018-08-16T07:26:35.164Z,82944
2018-08-16T07:27:35.096Z,82912
2018-08-16T07:28:35.098Z,82720
2018-08-16T07:29:35.056Z,83520
2018-08-16T07:30:35.036Z,84544
2018-08-16T07:31:35.152Z,85504
2018-08-16T07:32:35.075Z,86976
2018-08-16T07:33:35.126Z,88192
2018-08-16T07:34:35.102Z,88448
2018-08-16T07:35:35.029Z,87936
2018-08-16T07:36:35.115Z,87296
2018-08-16T07:37:35.065Z,86016
2018-08-16T07:38:35.125Z,85568
2018-08-16T07:39:35.137Z,85536
2018-08-16T07:40:35.142Z,85952
2018-08-16T07:41:35.046Z,86432
2018-08-16T07:42:35.035Z,86208
2018-08-16T07:43:35.085Z,85920
2018-08-16T07:44:35.091Z,85856
2018-08-16T07:45:35.249Z,86240
2018-08-16T07:46:35.039Z,87296
2018-08-16T07:47:35.136Z,89600
2018-08-16T07:48:35.084Z,90560
2018-08-16T07:49:35.064Z,91136
2018-08-16T07:50:35.207Z,91008
2018-08-16T07:51:35.463Z,89408
2018-08-16T07:52:35.187Z,88736
2018-08-16T07:53:35.113Z,88480
2018-08-16T07:54:35.187Z,88160
2018-08-16T07:55:35.188Z,87584
2018-08-16T07:56:35.119Z,88032
2018-08-16T07:57:35.185Z,89792
2018-08-16T07:58:35.349Z,92448
2018-08-16T07:59:35.121Z,94720
2018-08-16T08:00:35.192Z,97088
2018-08-16T08:01:35.124Z,98560
2018-08-16T08:02:35.194Z,99296
2018-08-16T08:03:35.121Z,100352
2018-08-16T08:04:35.197Z,101664
2018-08-16T08:05:35.122Z,101696
2018-08-16T08:06:35.145Z,99872
2018-08-16T08:07:35.197Z,98752
2018-08-16T08:08:35.124Z,98400
2018-08-16T08:09:35.405Z,98272
2018-08-16T08:10:35.139Z,98656
2018-08-16T08:11:35.072Z,100096
2018-08-16T08:12:35.081Z,101344
2018-08-16T08:13:35.149Z,102880
2018-08-16T08:14:35.101Z,105024
2018-08-16T08:15:35.173Z,107296
2018-08-16T08:16:35.171Z,108224
2018-08-16T08:17:35.101Z,108768
2018-08-16T08:18:35.079Z,108352
2018-08-16T08:19:35.162Z,106912
2018-08-16T08:20:35.130Z,103872
2018-08-16T08:21:35.129Z,100640
2018-08-16T08:22:35.131Z,99584
2018-08-16T08:23:35.189Z,99872
2018-08-16T08:24:35.112Z,100736
2018-08-16T08:25:35.242Z,102464
2018-08-16T08:26:35.160Z,104480
2018-08-16T08:27:35.067Z,107520
2018-08-16T08:28:35.093Z,110688
2018-08-16T08:29:35.076Z,114592
2018-08-16T08:30:35.092Z,117024
2018-08-16T08:31:35.181Z,117408
2018-08-16T08:32:35.071Z,115744
2018-08-16T08:33:35.109Z,113376
2018-08-16T08:34:35.157Z,111968
2018-08-16T08:35:35.199Z,111808
2018-08-16T08:36:35.115Z,113248
2018-08-16T08:37:35.094Z,116128
2018-08-16T08:38:35.190Z,118944
2018-08-16T08:39:35.140Z,121216
2018-08-16T08:40:35.142Z,122048
2018-08-16T08:41:35.142Z,121472
2018-08-16T08:42:35.150Z,118816
2018-08-16T08:43:35.223Z,116448
2018-08-16T08:44:35.150Z,113152
2018-08-16T08:45:35.220Z,110272
2018-08-16T08:46:35.149Z,108544
2018-08-16T08:47:35.223Z,108736
2018-08-16T08:48:35.152Z,110496
2018-08-16T08:49:35.152Z,113088
2018-08-16T08:50:35.152Z,117600
2018-08-16T08:51:35.230Z,121920
2018-08-16T08:52:35.156Z,126144
2018-08-16T08:53:35.235Z,127232
2018-08-16T08:54:35.226Z,127904
2018-08-16T08:55:35.155Z,126656
2018-08-16T08:56:35.155Z,123360
2018-08-16T08:57:35.230Z,121632
2018-08-16T08:58:35.160Z,119168
2018-08-16T08:59:35.233Z,117248
2018-08-16T09:00:35.235Z,116832
2018-08-16T09:01:35.166Z,116864
2018-08-16T09:02:35.233Z,116320
2018-08-16T09:03:35.238Z,116352
2018-08-16T09:04:35.188Z,116096
2018-08-16T09:05:35.240Z,116960
2018-08-16T09:06:35.166Z,118016
2018-08-16T09:07:35.241Z,118784
2018-08-16T09:08:35.242Z,122688
2018-08-16T09:09:35.122Z,127200
2018-08-16T09:10:35.119Z,130944
2018-08-16T09:11:35.150Z,131936
2018-08-16T09:12:35.146Z,131264
2018-08-16T09:13:35.144Z,128416
2018-08-16T09:14:35.124Z,124896
2018-08-16T09:15:35.180Z,122528
2018-08-16T09:16:35.209Z,122496
2018-08-16T09:17:35.183Z,125344
2018-08-16T09:18:35.170Z,128800
2018-08-16T09:19:35.168Z,132352
2018-08-16T09:20:35.217Z,133408
2018-08-16T09:21:35.107Z,132192
2018-08-16T09:22:35.247Z,131424
2018-08-16T09:23:35.235Z,131040
2018-08-16T09:24:35.247Z,130400
2018-08-16T09:25:35.131Z,131008
2018-08-16T09:26:35.200Z,132288
2018-08-16T09:27:35.111Z,133696
2018-08-16T09:28:35.200Z,135648
2018-08-16T09:29:35.130Z,136992
2018-08-16T09:30:35.150Z,137056
2018-08-16T09:31:35.290Z,136896
2018-08-16T09:32:35.132Z,136192
2018-08-16T09:33:35.250Z,136064
2018-08-16T09:34:35.199Z,135776
2018-08-16T09:35:35.169Z,136064
2018-08-16T09:36:35.212Z,136320
2018-08-16T09:37:35.195Z,134944
2018-08-16T09:38:35.247Z,134400
2018-08-16T09:39:35.359Z,135296
2018-08-16T09:40:35.262Z,135040
2018-08-16T09:41:35.184Z,135712
2018-08-16T09:42:35.264Z,136192
2018-08-16T09:43:35.188Z,136224
2018-08-16T09:44:35.264Z,135584
2018-08-16T09:45:35.229Z,135584
2018-08-16T09:46:35.271Z,135392
2018-08-16T09:47:35.266Z,137408
2018-08-16T09:48:35.267Z,139680
2018-08-16T09:49:35.199Z,140256
2018-08-16T09:50:35.266Z,140224
2018-08-16T09:51:35.228Z,138688
2018-08-16T09:52:35.275Z,136768
2018-08-16T09:53:35.204Z,134976
2018-08-16T09:54:35.272Z,133248
2018-08-16T09:55:35.203Z,133696
2018-08-16T09:56:35.275Z,135808
2018-08-16T09:57:35.232Z,136032
2018-08-16T09:58:35.275Z,135584
2018-08-16T09:59:35.201Z,136224
2018-08-16T10:00:35.172Z,133632
2018-08-16T10:01:35.153Z,134880
2018-08-16T10:02:35.237Z,135488
2018-08-16T10:03:35.282Z,134880
2018-08-16T10:04:35.219Z,131232
2018-08-16T10:05:35.219Z,128000
2018-08-16T10:06:35.156Z,124128
2018-08-16T10:07:35.201Z,121600
2018-08-16T10:08:35.242Z,121248
2018-08-16T10:09:35.269Z,123488
2018-08-16T10:10:35.282Z,125216
2018-08-16T10:11:35.204Z,129664
2018-08-16T10:12:35.285Z,132800
2018-08-16T10:13:35.307Z,134848
2018-08-16T10:14:35.221Z,135200
2018-08-16T10:15:35.286Z,130688
2018-08-16T10:16:35.218Z,127648
2018-08-16T10:17:35.286Z,127200
2018-08-16T10:18:35.266Z,130208
2018-08-16T10:19:35.300Z,133568
2018-08-16T10:20:35.290Z,136320
2018-08-16T10:21:35.217Z,141536
2018-08-16T10:22:35.291Z,142688
2018-08-16T10:23:35.221Z,141760
2018-08-16T10:24:35.298Z,136864
2018-08-16T10:25:35.294Z,132512
2018-08-16T10:26:35.217Z,129728
2018-08-16T10:27:35.293Z,128096
2018-08-16T10:28:35.227Z,129760
2018-08-16T10:29:35.183Z,131776
2018-08-16T10:30:35.203Z,133888
2018-08-16T10:31:35.228Z,134336
2018-08-16T10:32:35.229Z,136448
2018-08-16T10:33:35.237Z,136800
2018-08-16T10:34:35.154Z,138912
2018-08-16T10:35:35.243Z,138240
2018-08-16T10:36:35.210Z,140960
2018-08-16T10:37:35.168Z,137216
2018-08-16T10:38:35.208Z,136992
2018-08-16T10:39:35.122Z,137824
2018-08-16T10:40:35.261Z,135328
2018-08-16T10:41:35.305Z,133888
2018-08-16T10:42:35.229Z,137120
2018-08-16T10:43:35.306Z,139520
2018-08-16T10:44:35.250Z,144288
2018-08-16T10:45:35.307Z,144416
2018-08-16T10:46:35.239Z,142688
2018-08-16T10:47:35.184Z,138656
2018-08-16T10:48:35.241Z,131680
2018-08-16T10:49:35.314Z,127104
2018-08-16T10:50:35.291Z,125792
2018-08-16T10:51:35.209Z,130016
2018-08-16T10:52:35.308Z,136800
2018-08-16T10:53:35.272Z,142624
2018-08-16T10:54:35.203Z,145280
2018-08-16T10:55:35.225Z,145792
2018-08-16T10:56:35.173Z,146272
2018-08-16T10:57:35.189Z,145376
2018-08-16T10:58:35.189Z,140832
2018-08-16T10:59:35.303Z,134016
2018-08-16T11:00:35.207Z,133088
2018-08-16T11:01:35.268Z,136832
2018-08-16T11:02:35.255Z,142528
2018-08-16T11:03:35.253Z,145952
2018-08-16T11:04:35.217Z,149568
2018-08-16T11:05:35.254Z,149088
2018-08-16T11:06:35.259Z,150176
2018-08-16T11:07:35.269Z,151616
2018-08-16T11:08:35.262Z,149024
2018-08-16T11:09:35.256Z,145216
2018-08-16T11:10:35.223Z,138816
2018-08-16T11:11:35.247Z,133984
2018-08-16T11:12:35.202Z,133824
2018-08-16T11:13:35.319Z,137920
2018-08-16T11:14:35.283Z,140768
2018-08-16T11:15:35.206Z,142112
2018-08-16T11:16:35.207Z,139456
2018-08-16T11:17:35.267Z,140736
2018-08-16T11:18:35.270Z,142976
2018-08-16T11:19:35.319Z,142272
2018-08-16T11:20:35.212Z,141600
2018-08-16T11:21:35.188Z,140928
2018-08-16T11:22:35.287Z,141376
2018-08-16T11:23:35.281Z,140416
2018-08-16T11:24:35.280Z,138560
2018-08-16T11:25:35.195Z,141440
2018-08-16T11:26:35.320Z,139808
2018-08-16T11:27:35.216Z,136768
2018-08-16T11:28:35.215Z,135104
2018-08-16T11:29:35.203Z,134400
2018-08-16T11:30:35.297Z,137440
2018-08-16T11:31:35.274Z,137696
2018-08-16T11:32:35.521Z,138368
2018-08-16T11:33:35.246Z,138624
2018-08-16T11:34:35.303Z,139744
2018-08-16T11:35:35.300Z,134112
2018-08-16T11:36:35.304Z,134560
2018-08-16T11:37:35.255Z,132960
2018-08-16T11:38:35.282Z,132832
2018-08-16T11:39:35.182Z,134080
2018-08-16T11:40:35.242Z,136000
2018-08-16T11:41:35.267Z,144960
2018-08-16T11:42:35.246Z,145056
2018-08-16T11:43:35.249Z,143744
2018-08-16T11:44:35.243Z,141728
2018-08-16T11:45:35.290Z,137408
2018-08-16T11:46:35.350Z,136736
2018-08-16T11:47:35.318Z,138400
2018-08-16T11:48:35.335Z,139552
2018-08-16T11:49:35.296Z,138560
2018-08-16T11:50:35.352Z,135072
2018-08-16T11:51:35.275Z,136480
2018-08-16T11:52:35.324Z,137344
2018-08-16T11:53:35.353Z,139168
2018-08-16T11:54:35.283Z,143520
2018-08-16T11:55:35.361Z,145120
2018-08-16T11:56:35.282Z,148288
2018-08-16T11:57:35.358Z,147360
2018-08-16T11:58:35.312Z,146656
2018-08-16T11:59:35.357Z,148480
2018-08-16T12:00:35.278Z,147520
2018-08-16T12:01:35.344Z,147424
2018-08-16T12:02:35.299Z,146208
2018-08-16T12:03:35.320Z,144288
2018-08-16T12:04:35.255Z,142848
2018-08-16T12:05:35.331Z,141504
2018-08-16T12:06:35.222Z,143328
2018-08-16T12:07:35.259Z,145120
2018-08-16T12:08:35.286Z,146080
2018-08-16T12:09:35.350Z,149120
2018-08-16T12:10:35.253Z,147296
2018-08-16T12:11:35.294Z,146400
2018-08-16T12:12:35.371Z,145504
2018-08-16T12:13:35.294Z,143936
2018-08-16T12:14:35.397Z,143360
2018-08-16T12:15:35.301Z,142048
2018-08-16T12:16:35.373Z,142240
2018-08-16T12:17:35.370Z,138784
2018-08-16T12:18:35.297Z,141472
2018-08-16T12:19:35.371Z,141088
2018-08-16T12:20:35.298Z,142144
2018-08-16T12:21:35.373Z,141760
2018-08-16T12:22:35.300Z,138432
2018-08-16T12:23:35.400Z,135712
2018-08-16T12:24:35.306Z,137152
2018-08-16T12:25:35.304Z,142368
2018-08-16T12:26:35.379Z,147872
2018-08-16T12:27:35.300Z,149824
2018-08-16T12:28:35.382Z,147360
2018-08-16T12:29:35.314Z,143296
2018-08-16T12:30:35.380Z,136384
2018-08-16T12:31:35.309Z,133024
2018-08-16T12:32:35.385Z,133184
2018-08-16T12:33:35.379Z,132736
2018-08-16T12:34:35.387Z,134720
2018-08-16T12:35:35.384Z,136000
2018-08-16T12:36:35.313Z,138304
2018-08-16T12:37:35.331Z,136480
2018-08-16T12:38:35.315Z,131392
2018-08-16T12:39:35.384Z,131904
2018-08-16T12:40:35.424Z,130048
2018-08-16T12:41:35.317Z,124224
2018-08-16T12:42:35.440Z,122176
2018-08-16T12:43:35.289Z,126080
2018-08-16T12:44:35.270Z,131456
2018-08-16T12:45:35.315Z,130048
2018-08-16T12:46:35.384Z,126080
2018-08-16T12:47:35.404Z,120512
2018-08-16T12:48:35.271Z,125440
2018-08-16T12:49:35.367Z,131584
2018-08-16T12:50:35.373Z,134496
2018-08-16T12:51:35.319Z,136832
2018-08-16T12:52:35.347Z,133824
2018-08-16T12:53:35.311Z,130624
2018-08-16T12:54:35.400Z,121568
2018-08-16T12:55:35.306Z,118272
2018-08-16T12:56:35.358Z,118016
2018-08-16T12:57:35.322Z,117056
2018-08-16T12:58:35.298Z,121344
2018-08-16T12:59:35.284Z,132960
2018-08-16T13:00:35.288Z,136384
2018-08-16T13:01:35.334Z,133248
2018-08-16T13:02:35.324Z,134368
2018-08-16T13:03:35.407Z,132288
2018-08-16T13:04:35.328Z,126272
2018-08-16T13:05:35.416Z,123136
2018-08-16T13:06:35.360Z,105984
2018-08-16T13:07:35.406Z,101376
2018-08-16T13:08:35.334Z,122368
2018-08-16T13:09:35.406Z,134048
2018-08-16T13:10:35.412Z,132032
2018-08-16T13:11:35.406Z,129568
2018-08-16T13:12:35.334Z,127264
2018-08-16T13:13:35.412Z,128192
2018-08-16T13:14:35.343Z,133216
2018-08-16T13:15:35.339Z,136736